CYYQ

Churchill Airport

Churchill, Manitoba, Canada
METAR CYYQ 222133Z 09023G31KT 2SM -SNPL BLSN OVC009 M02/M03 A2976 RMK BLSN1ST7 VIS VRB 1-3 SLP083
Observed Flight Rules
Apr-22 @ 21:33 UTC (23 minutes ago) Instrument Flight Rules
Wind Visibility Clouds Conditions
90° at 23 knots
 Gusting to 31 knots
2 miles
  • Overcast at 900' AGL
  • Light Snow
  • Blowing
  • Snow
Temperatures Readings
Current -2°C / 28°F
Dewpoint -3°C / 27°F
Humidity 93%
Altimeter 29.76" Hg
Pressure 1008.3 hPa
Elevation 29
METAR CYYQ 222133Z 09023G31KT 2SM -SNPL BLSN OVC009 M02/M03 A2976 RMK BLSN1ST7 VIS VRB 1-3 SLP083
Observed Flight Rules
Apr-22 @ 21:33 UTC
(23 minutes ago)
IFR
Wind Visibility
90° at 23 knots
 Gusting to 31 knots
2 miles
Clouds
  • Overcast at 900' AGL
Conditions
  • Light Snow
  • Blowing
  • Snow
Temperature Dewpoint
-2°C / 28°F -3°C / 27°F
Humidity Altimeter Pressure
93% 29.76" Hg 1008.3 hPa